Skip Navigation Links
NOAA logo - Click to go to the NOAA homepage
NOAA's National Weather Service
Alaska Aviation Weather Unit
  NWS logo - Click to go to the NWS homepage
Left Navbar Graphic     19 AKDT = 03 GMT

   
NOAA is celebrating 200 years of science, service, and stewardship. Visit the NOAA 200th celebration Web site to learn more.
USA.gov is the U.S. Government's official Web portal to all Federal, state and local government Web resources and services.
Facebook
NWS on Facebook

Important Change Regarding the AAWU Web Presence

 

Over the last several months, the AAWU has been working to navigate its webpages to a nationally supported server. Security, as well as other needs, have necessitated the change.  In the process, we have made an effort to enhance the functionality of our website, as well as some of our products. As of June 20, 2017, aawu.arh.noaa.gov will be discontinued. The new AAWU web address is weather.gov/aawu. It is now live and will run in-parallel with the old site until it is discontinued. Please send any feedback or questions regarding the new webpages to nws.ar.aawu.webauthors@noaa.gov.  Thank you for your patience during this time of transition.
AAWU Home :: Display TAF Add Bookmark
TAF PAGK 242322Z 2500/2524 16024G35KT P6SM SCT050 BKN080
     FM250600 16015G22KT P6SM SCT050 BKN080
     FM252000 16020G28KT P6SM SCT050 BKN080=
METAR PAGK 242153Z AUTO 15027G35KT 10SM SCT050 11/00 A2994 RMK AO2 PK
     WND 15039/2130 SLP154 T01110000 TSNO $=

METAR PAGK 242253Z AUTO 15027G38KT 10SM CLR 12/M01 A2992 RMK AO2 PK WND
     16038/2247 SLP147 T01221006 TSNO $=

METAR PAGK 242353Z AUTO 15020G37KT 10SM CLR 12/M01 A2990 RMK AO2 PK WND
     13042/2255 SLP137 T01221006 10128 20083 58016 TSNO $=

METAR PAGK 250053Z AUTO 16024G37KT 10SM CLR 11/00 A2987 RMK AO2 PK
 WND 15042/0037 SLP128 T01110000 TSNO $=

METAR PAGK 250153Z AUTO 16029G39KT 10SM CLR 12/00 A2987 RMK AO2 PK WND
     14041/0101 SLP126 T01220000 TSNO $=

METAR PAGK 250253Z AUTO 15025G37KT 10SM BKN055 12/00 A2986 RMK AO2
 PK WND 16040/0233 SLP122 T01170000 56010 TSNO $=


NOAA's National Weather Service
Alaska Aviation Weather Unit
6930 Sand Lake Road
Anchorage, AK 99502-1845
Disclaimer
Credits
Glossary
Privacy Policy
About Us
Career Opportunities
Contact AAWU Internet Services Site last modified: April, 17th 2012